createdAt,value
2023-03-16T00:00:20.321Z,4.40
2023-03-16T00:02:47.288Z,5.45
2023-03-16T00:05:14.588Z,4.63
2023-03-16T00:07:44.719Z,4.40
2023-03-16T00:10:13.195Z,4.00
2023-03-16T00:12:43.578Z,4.25
2023-03-16T00:17:38.095Z,4.47
2023-03-16T00:20:07.164Z,3.85
2023-03-16T00:22:34.465Z,4.65
2023-03-16T00:25:01.916Z,4.43
2023-03-16T00:27:29.762Z,4.32
2023-03-16T00:29:57.004Z,4.07
2023-03-16T00:32:29.524Z,4.43
2023-03-16T00:34:56.466Z,4.10
2023-03-16T00:37:25.350Z,4.00
2023-03-16T00:39:56.585Z,4.00
2023-03-16T00:42:27.727Z,3.80
2023-03-16T00:44:57.826Z,4.30
2023-03-16T00:47:27.131Z,4.13
2023-03-16T00:49:54.786Z,4.10
2023-03-16T00:52:23.691Z,4.18
2023-03-16T00:54:53.432Z,3.90
2023-03-16T00:57:22.725Z,4.20
2023-03-16T00:59:49.756Z,3.83
2023-03-16T01:02:20.060Z,3.30
2023-03-16T01:04:47.106Z,4.03
2023-03-16T01:07:14.948Z,3.55
2023-03-16T01:09:42.928Z,3.60
2023-03-16T01:12:14.886Z,3.72
2023-03-16T01:14:42.062Z,4.10
2023-03-16T01:17:09.913Z,3.65
2023-03-16T01:19:37.907Z,3.50
2023-03-16T01:22:06.339Z,3.90
2023-03-16T01:24:34.922Z,3.83
2023-03-16T01:27:02.517Z,3.67
2023-03-16T01:29:29.932Z,4.20
2023-03-16T01:31:58.986Z,3.88
2023-03-16T01:34:26.117Z,3.97
2023-03-16T01:36:54.152Z,3.75
2023-03-16T01:39:50.156Z,4.35
2023-03-16T01:42:17.388Z,4.43
2023-03-16T01:44:56.759Z,4.70
2023-03-16T01:47:29.300Z,4.13
2023-03-16T01:49:57.382Z,3.60
2023-03-16T01:52:35.869Z,4.53
2023-03-16T01:55:13.912Z,3.63
2023-03-16T01:57:45.510Z,3.80
2023-03-16T02:00:23.929Z,3.67
2023-03-16T02:03:10.871Z,4.45
2023-03-16T02:05:59.219Z,4.05
2023-03-16T02:08:28.482Z,4.30
2023-03-16T02:10:57.150Z,4.40
2023-03-16T02:13:36.865Z,3.95
2023-03-16T02:16:09.057Z,3.90
2023-03-16T02:18:36.868Z,4.28
2023-03-16T02:21:19.456Z,5.03
2023-03-16T02:23:51.664Z,3.67
2023-03-16T02:26:33.616Z,4.22
2023-03-16T02:29:06.379Z,4.60
2023-03-16T02:31:34.385Z,3.72
2023-03-16T02:34:02.754Z,4.30
2023-03-16T02:36:30.712Z,4.20
2023-03-16T02:38:57.671Z,4.78
2023-03-16T02:41:25.140Z,4.25
2023-03-16T02:44:27.182Z,5.45
2023-03-16T02:47:00.031Z,4.85
2023-03-16T02:49:47.197Z,6.15
2023-03-16T02:52:16.402Z,6.70
2023-03-16T02:54:43.598Z,4.38
2023-03-16T02:57:10.850Z,5.85
2023-03-16T02:59:37.791Z,5.35
2023-03-16T03:02:04.951Z,4.63
2023-03-16T03:04:33.147Z,5.05
2023-03-16T03:07:05.022Z,5.22
2023-03-16T03:09:44.067Z,5.38
2023-03-16T03:12:11.761Z,4.80
2023-03-16T03:14:39.301Z,5.50
2023-03-16T03:17:08.062Z,5.57
2023-03-16T03:19:35.694Z,6.45
2023-03-16T03:22:06.502Z,5.88
2023-03-16T03:24:34.833Z,5.25
2023-03-16T03:27:05.847Z,6.03
2023-03-16T03:29:35.005Z,5.38
2023-03-16T03:32:06.148Z,5.50
2023-03-16T03:34:33.521Z,5.30
2023-03-16T03:37:01.359Z,5.10
2023-03-16T03:39:29.058Z,5.10
2023-03-16T03:41:56.266Z,4.60
2023-03-16T03:44:24.716Z,4.88
2023-03-16T03:46:55.748Z,5.00
2023-03-16T03:49:26.302Z,4.53
2023-03-16T03:51:53.482Z,4.60
2023-03-16T03:54:25.673Z,4.82
2023-03-16T03:57:04.083Z,5.05
2023-03-16T03:59:31.763Z,5.47
2023-03-16T04:02:27.674Z,5.72
2023-03-16T04:04:55.762Z,5.57
2023-03-16T04:07:22.868Z,5.50
2023-03-16T04:09:54.343Z,6.18
2023-03-16T04:12:33.249Z,7.03
2023-03-16T04:15:00.640Z,6.95
2023-03-16T04:17:55.321Z,6.28
2023-03-16T04:20:26.223Z,5.95
2023-03-16T04:22:58.587Z,6.50
2023-03-16T04:25:27.698Z,6.80
2023-03-16T04:27:55.047Z,6.43
2023-03-16T04:32:58.768Z,5.55
2023-03-16T04:35:25.752Z,6.75
2023-03-16T04:37:56.367Z,6.40
2023-03-16T04:40:31.269Z,6.45
2023-03-16T04:43:07.071Z,6.78
2023-03-16T04:45:35.090Z,6.38
2023-03-16T04:48:02.334Z,6.07
2023-03-16T04:50:30.253Z,5.95
2023-03-16T04:52:57.553Z,6.50
2023-03-16T04:55:25.488Z,6.63
2023-03-16T04:57:52.897Z,6.70
2023-03-16T05:00:23.207Z,7.53
2023-03-16T05:02:59.676Z,6.43
2023-03-16T05:05:26.717Z,7.30
2023-03-16T05:07:53.711Z,6.93
2023-03-16T05:10:22.055Z,7.18
2023-03-16T05:12:49.043Z,7.47
2023-03-16T05:15:16.472Z,7.40
2023-03-16T05:17:46.705Z,7.60
2023-03-16T05:20:16.301Z,9.65
2023-03-16T05:22:49.599Z,9.45
2023-03-16T05:25:40.532Z,9.88
2023-03-16T05:28:09.859Z,9.00
2023-03-16T05:30:51.863Z,8.82
2023-03-16T05:33:23.669Z,9.68
2023-03-16T05:35:58.125Z,10.52
2023-03-16T05:38:27.583Z,10.55
2023-03-16T05:40:55.558Z,9.63
2023-03-16T05:43:36.014Z,7.88
2023-03-16T05:46:04.087Z,9.52
2023-03-16T05:48:31.927Z,12.25
2023-03-16T05:51:01.496Z,10.80
2023-03-16T05:53:30.114Z,13.02
2023-03-16T05:56:05.976Z,16.67
2023-03-16T05:58:35.187Z,12.73
2023-03-16T06:01:07.329Z,12.35
2023-03-16T06:03:34.305Z,9.77
2023-03-16T06:06:02.223Z,9.35
2023-03-16T06:08:38.487Z,12.05
2023-03-16T06:11:12.326Z,12.85
2023-03-16T06:13:40.783Z,10.52
2023-03-16T06:16:08.420Z,11.68
2023-03-16T06:18:36.213Z,8.75
2023-03-16T06:21:04.094Z,10.13
2023-03-16T06:23:32.313Z,10.95
2023-03-16T06:26:00.682Z,9.15
2023-03-16T06:28:30.219Z,9.10
2023-03-16T06:30:58.469Z,9.00
2023-03-16T06:33:29.763Z,9.43
2023-03-16T06:35:57.020Z,9.55
2023-03-16T06:38:31.418Z,9.43
2023-03-16T06:41:02.094Z,9.32
2023-03-16T06:43:30.184Z,9.38
2023-03-16T06:45:59.018Z,8.45
2023-03-16T06:48:26.017Z,9.15
2023-03-16T06:50:53.153Z,8.00
2023-03-16T06:53:24.544Z,7.82
2023-03-16T06:55:52.921Z,7.95
2023-03-16T06:58:20.139Z,7.35
2023-03-16T07:00:47.379Z,8.75
2023-03-16T07:03:14.357Z,7.97
2023-03-16T07:05:47.991Z,7.80
2023-03-16T07:08:15.477Z,8.05
2023-03-16T07:10:47.603Z,8.05
2023-03-16T07:13:14.528Z,7.35
2023-03-16T07:15:44.632Z,8.68
2023-03-16T07:18:14.638Z,7.55
2023-03-16T07:20:43.049Z,8.20
2023-03-16T07:23:11.176Z,8.13
2023-03-16T07:25:39.178Z,7.30
2023-03-16T07:28:06.305Z,7.47
2023-03-16T07:30:39.491Z,7.20
2023-03-16T07:33:09.639Z,7.40
2023-03-16T07:35:36.526Z,7.75
2023-03-16T07:38:03.725Z,7.22
2023-03-16T07:40:31.394Z,7.68
2023-03-16T07:43:06.369Z,7.47
2023-03-16T07:45:41.686Z,6.60
2023-03-16T07:48:08.885Z,7.72
2023-03-16T07:50:49.587Z,6.40
2023-03-16T07:53:17.618Z,5.93
2023-03-16T07:55:49.787Z,7.22
2023-03-16T07:58:18.579Z,6.00
2023-03-16T08:00:47.048Z,6.28
2023-03-16T08:03:14.120Z,5.20
2023-03-16T08:05:41.876Z,5.80
2023-03-16T08:08:16.109Z,6.22
2023-03-16T08:10:43.713Z,6.82
2023-03-16T08:13:14.686Z,6.93
2023-03-16T08:15:47.374Z,6.85
2023-03-16T08:18:29.894Z,6.18
2023-03-16T08:20:57.752Z,7.15
2023-03-16T08:23:26.257Z,6.35
2023-03-16T08:25:54.438Z,6.72
2023-03-16T08:28:22.973Z,7.07
2023-03-16T08:30:53.426Z,6.28
2023-03-16T08:33:34.977Z,7.45
2023-03-16T08:36:05.521Z,6.68
2023-03-16T08:38:33.654Z,6.63
2023-03-16T08:41:05.114Z,7.10
2023-03-16T08:43:33.761Z,6.22
2023-03-16T08:46:01.809Z,6.43
2023-03-16T08:48:42.787Z,6.57
2023-03-16T08:51:11.751Z,6.88
2023-03-16T08:53:39.280Z,7.13
2023-03-16T08:56:09.141Z,7.82
2023-03-16T08:58:36.445Z,7.78
2023-03-16T09:01:05.865Z,6.47
2023-03-16T09:03:33.582Z,6.37
2023-03-16T09:06:06.131Z,6.43
2023-03-16T09:08:33.491Z,6.47
2023-03-16T09:11:07.639Z,6.95
2023-03-16T09:13:35.551Z,6.57
2023-03-16T09:16:03.136Z,7.20
2023-03-16T09:18:30.422Z,5.32
2023-03-16T09:21:01.482Z,7.00
2023-03-16T09:23:29.741Z,8.52
2023-03-16T09:26:01.660Z,6.60
2023-03-16T09:28:30.972Z,7.78
2023-03-16T09:31:01.624Z,6.53
2023-03-16T09:33:30.043Z,6.82
2023-03-16T09:36:00.739Z,6.95
2023-03-16T09:38:27.932Z,6.88
2023-03-16T09:41:07.217Z,7.32
2023-03-16T09:43:57.285Z,6.93
2023-03-16T09:46:24.213Z,6.47
2023-03-16T09:48:52.310Z,7.20
2023-03-16T09:51:43.496Z,7.00
2023-03-16T09:54:27.776Z,6.78
2023-03-16T09:56:57.209Z,7.10
2023-03-16T09:59:25.704Z,6.47
2023-03-16T10:02:15.742Z,5.50
2023-03-16T10:05:06.371Z,6.55
2023-03-16T10:10:39.235Z,6.15
2023-03-16T10:15:42.286Z,5.63
2023-03-16T10:18:29.438Z,6.30
2023-03-16T10:20:58.644Z,6.10
2023-03-16T10:23:26.342Z,5.40
2023-03-16T10:25:55.292Z,6.40
2023-03-16T10:28:26.291Z,6.43
2023-03-16T10:30:55.676Z,5.68
2023-03-16T10:33:31.587Z,5.70
2023-03-16T10:36:06.125Z,4.70
2023-03-16T10:38:48.362Z,6.30
2023-03-16T10:41:18.437Z,5.13
2023-03-16T10:43:47.584Z,5.32
2023-03-16T10:46:15.299Z,4.72
2023-03-16T10:48:43.440Z,5.50
2023-03-16T10:51:15.928Z,4.38
2023-03-16T10:53:44.722Z,5.20
2023-03-16T10:56:20.111Z,5.03
2023-03-16T10:58:47.381Z,5.72
2023-03-16T11:01:29.142Z,5.43
2023-03-16T11:03:58.192Z,5.90
2023-03-16T11:06:30.868Z,5.78
2023-03-16T11:09:19.722Z,6.18
2023-03-16T11:11:51.105Z,5.60
2023-03-16T11:14:23.863Z,4.60
2023-03-16T11:17:05.851Z,5.68
2023-03-16T11:19:50.280Z,6.68
2023-03-16T11:22:20.510Z,5.95
2023-03-16T11:24:56.430Z,6.93
2023-03-16T11:27:26.297Z,7.05
2023-03-16T11:30:15.242Z,6.10
2023-03-16T11:32:50.619Z,5.72
2023-03-16T11:35:28.386Z,6.60
2023-03-16T11:38:15.522Z,6.85
2023-03-16T11:41:00.343Z,5.40
2023-03-16T11:43:48.623Z,6.55
2023-03-16T11:46:24.575Z,6.47
2023-03-16T11:49:00.114Z,6.10
2023-03-16T11:51:55.811Z,6.20
2023-03-16T11:54:50.960Z,5.53
2023-03-16T11:57:36.683Z,6.75
2023-03-16T12:00:27.994Z,5.65
2023-03-16T12:03:23.006Z,5.95
2023-03-16T12:06:23.530Z,5.22
2023-03-16T12:08:57.595Z,4.70
2023-03-16T12:11:32.041Z,4.78
2023-03-16T12:14:15.796Z,4.45
2023-03-16T12:17:08.958Z,4.72
2023-03-16T12:20:14.312Z,4.97
2023-03-16T12:22:48.747Z,4.30
2023-03-16T12:25:32.489Z,4.65
2023-03-16T12:28:02.905Z,4.80
2023-03-16T12:30:46.686Z,3.97
2023-03-16T12:33:16.734Z,5.18
2023-03-16T12:36:04.006Z,4.70
2023-03-16T12:38:49.791Z,4.50
2023-03-16T12:41:44.985Z,6.70
2023-03-16T12:44:26.770Z,5.40
2023-03-16T12:47:09.874Z,5.38
2023-03-16T12:49:37.415Z,5.10
2023-03-16T12:52:11.468Z,5.65
2023-03-16T12:54:49.816Z,5.32
2023-03-16T12:57:17.543Z,5.63
2023-03-16T12:59:47.543Z,6.70
2023-03-16T13:02:17.124Z,5.75
2023-03-16T13:04:49.122Z,5.53
2023-03-16T13:07:21.970Z,5.47
2023-03-16T13:09:59.156Z,5.63
2023-03-16T13:12:42.005Z,6.47
2023-03-16T13:15:22.251Z,6.07
2023-03-16T13:18:10.573Z,6.55
2023-03-16T13:20:54.382Z,6.22
2023-03-16T13:23:25.544Z,5.82
2023-03-16T13:26:03.318Z,5.70
2023-03-16T13:28:35.883Z,5.20
2023-03-16T13:31:03.617Z,5.45
2023-03-16T13:33:33.862Z,5.47
2023-03-16T13:36:00.985Z,6.18
2023-03-16T13:38:28.761Z,6.57
2023-03-16T13:40:58.723Z,6.10
2023-03-16T13:43:33.040Z,5.70
2023-03-16T13:46:00.174Z,7.13
2023-03-16T13:48:27.112Z,5.32
2023-03-16T13:51:00.567Z,5.82
2023-03-16T13:53:30.248Z,6.00
2023-03-16T13:55:59.604Z,5.67
2023-03-16T13:58:29.321Z,6.30
2023-03-16T14:01:01.852Z,4.57
2023-03-16T14:03:38.867Z,5.05
2023-03-16T14:06:07.468Z,5.85
2023-03-16T14:08:34.771Z,5.55
2023-03-16T14:11:02.877Z,4.53
2023-03-16T14:13:30.423Z,4.47
2023-03-16T14:16:01.205Z,5.28
2023-03-16T14:18:37.337Z,6.05
2023-03-16T14:21:10.427Z,5.80
2023-03-16T14:23:43.445Z,5.78
2023-03-16T14:26:13.940Z,4.72
2023-03-16T14:31:19.344Z,4.50
2023-03-16T14:33:46.309Z,4.70
2023-03-16T14:36:16.447Z,5.13
2023-03-16T14:38:48.580Z,4.10
2023-03-16T14:41:30.793Z,3.70
2023-03-16T14:44:00.123Z,4.72
2023-03-16T14:46:33.248Z,3.95
2023-03-16T14:49:20.429Z,3.60
2023-03-16T14:51:50.806Z,3.90
2023-03-16T14:54:22.474Z,3.22
2023-03-16T14:56:54.465Z,4.10
2023-03-16T14:59:22.197Z,4.10
2023-03-16T15:01:52.613Z,3.70
2023-03-16T15:06:55.661Z,3.70
2023-03-16T15:09:37.273Z,3.80
2023-03-16T15:12:04.982Z,3.95
2023-03-16T15:14:50.377Z,3.22
2023-03-16T15:17:17.642Z,3.42
2023-03-16T15:19:44.780Z,4.10
2023-03-16T15:22:13.419Z,3.65
2023-03-16T15:24:40.636Z,3.60
2023-03-16T15:27:23.499Z,3.85
2023-03-16T15:29:50.680Z,3.90
2023-03-16T15:32:17.612Z,3.65
2023-03-16T15:34:46.628Z,3.72
2023-03-16T15:37:16.252Z,3.90
2023-03-16T15:39:46.273Z,3.60
2023-03-16T15:42:16.117Z,3.80
2023-03-16T15:44:44.050Z,3.58
2023-03-16T15:47:11.299Z,3.55
2023-03-16T15:49:47.115Z,3.40
2023-03-16T15:52:34.808Z,4.13
2023-03-16T15:55:07.872Z,3.53
2023-03-16T15:57:35.735Z,3.78
2023-03-16T16:00:03.932Z,3.28
2023-03-16T16:02:32.439Z,3.30
2023-03-16T16:04:59.879Z,3.67
2023-03-16T16:07:27.441Z,3.80
2023-03-16T16:09:54.306Z,3.60
2023-03-16T16:12:26.858Z,3.17
2023-03-16T16:14:56.331Z,3.60
2023-03-16T16:17:36.505Z,3.25
2023-03-16T16:20:41.183Z,3.35
2023-03-16T16:23:10.522Z,3.50
2023-03-16T16:25:41.499Z,3.28
2023-03-16T16:28:21.270Z,4.03
2023-03-16T16:30:48.376Z,3.07
2023-03-16T16:33:30.312Z,3.95
2023-03-16T16:36:02.478Z,3.47
2023-03-16T16:38:31.723Z,3.75
2023-03-16T16:41:01.656Z,3.28
2023-03-16T16:43:47.145Z,4.18
2023-03-16T16:46:17.547Z,3.15
2023-03-16T16:48:47.552Z,3.60
2023-03-16T16:51:27.912Z,3.80
2023-03-16T16:53:57.502Z,3.80
2023-03-16T16:56:30.362Z,4.20
2023-03-16T16:58:58.652Z,3.67
2023-03-16T17:01:34.658Z,3.58
2023-03-16T17:04:02.884Z,3.60
2023-03-16T17:06:30.540Z,3.60
2023-03-16T17:08:57.566Z,4.07
2023-03-16T17:11:26.294Z,3.80
2023-03-16T17:13:55.445Z,3.75
2023-03-16T17:16:35.607Z,3.40
2023-03-16T17:19:03.444Z,3.80
2023-03-16T17:21:31.750Z,3.58
2023-03-16T17:24:00.382Z,3.30
2023-03-16T17:26:31.712Z,3.90
2023-03-16T17:29:10.991Z,3.22
2023-03-16T17:31:41.796Z,3.15
2023-03-16T17:34:35.100Z,3.08
2023-03-16T17:37:02.325Z,3.50
2023-03-16T17:39:31.976Z,2.97
2023-03-16T17:42:03.320Z,4.95
2023-03-16T17:44:39.297Z,3.28
2023-03-16T17:47:18.348Z,3.90
2023-03-16T17:49:48.792Z,3.92
2023-03-16T17:54:49.448Z,2.83
2023-03-16T17:57:36.311Z,3.28
2023-03-16T18:00:21.620Z,3.45
2023-03-16T18:03:10.933Z,3.20
2023-03-16T18:05:38.289Z,3.88
2023-03-16T18:08:14.300Z,3.80
2023-03-16T18:10:41.577Z,3.22
2023-03-16T18:13:19.954Z,3.28
2023-03-16T18:15:48.685Z,3.00
2023-03-16T18:18:21.816Z,3.22
2023-03-16T18:20:50.960Z,3.22
2023-03-16T18:23:23.031Z,3.30
2023-03-16T18:25:52.649Z,3.95
2023-03-16T18:28:20.715Z,4.00
2023-03-16T18:30:52.612Z,4.63
2023-03-16T18:33:35.367Z,5.95
2023-03-16T18:36:12.931Z,5.32
2023-03-16T18:38:43.652Z,5.13
2023-03-16T18:41:23.982Z,4.22
2023-03-16T18:43:59.672Z,3.85
2023-03-16T18:46:35.537Z,4.13
2023-03-16T18:49:12.587Z,4.25
2023-03-16T18:51:40.503Z,4.40
2023-03-16T18:54:28.769Z,4.97
2023-03-16T18:56:58.667Z,4.72
2023-03-16T18:59:26.211Z,4.15
2023-03-16T19:01:54.036Z,3.83
2023-03-16T19:04:23.902Z,3.95
2023-03-16T19:06:54.050Z,4.13
2023-03-16T19:09:32.044Z,3.63
2023-03-16T19:11:59.440Z,4.53
2023-03-16T19:14:30.768Z,4.00
2023-03-16T19:16:57.980Z,3.92
2023-03-16T19:19:25.470Z,4.80
2023-03-16T19:21:55.118Z,3.97
2023-03-16T19:24:37.038Z,4.00
2023-03-16T19:27:06.693Z,4.13
2023-03-16T19:29:35.309Z,4.00
2023-03-16T19:32:02.662Z,4.07
2023-03-16T19:34:30.096Z,3.75
2023-03-16T19:36:57.318Z,4.32
2023-03-16T19:39:24.381Z,4.22
2023-03-16T19:41:57.642Z,4.38
2023-03-16T19:44:29.013Z,4.47
2023-03-16T19:46:56.228Z,4.93
2023-03-16T19:49:26.187Z,4.65
2023-03-16T19:51:55.271Z,4.78
2023-03-16T19:54:44.285Z,4.20
2023-03-16T20:00:09.053Z,3.83
2023-03-16T20:02:39.173Z,4.15
2023-03-16T20:05:07.819Z,4.75
2023-03-16T20:07:38.201Z,4.55
2023-03-16T20:12:38.547Z,4.72
2023-03-16T20:15:05.746Z,4.35
2023-03-16T20:17:33.910Z,5.05
2023-03-16T20:20:00.807Z,4.63
2023-03-16T20:22:28.806Z,4.70
2023-03-16T20:24:58.143Z,4.25
2023-03-16T20:27:27.000Z,4.95
2023-03-16T20:29:54.040Z,4.72
2023-03-16T20:32:23.694Z,4.60
2023-03-16T20:34:51.386Z,4.60
2023-03-16T20:37:27.245Z,5.07
2023-03-16T20:39:59.242Z,4.88
2023-03-16T20:42:32.182Z,4.43
2023-03-16T20:44:59.315Z,4.70
2023-03-16T20:47:26.756Z,4.70
2023-03-16T20:49:59.404Z,4.50
2023-03-16T20:52:30.802Z,4.50
2023-03-16T20:54:58.327Z,5.72
2023-03-16T20:57:27.543Z,6.32
2023-03-16T20:59:55.652Z,5.90
2023-03-16T21:02:38.614Z,5.78
2023-03-16T21:05:07.913Z,6.80
2023-03-16T21:07:35.032Z,6.68
2023-03-16T21:10:02.139Z,6.38
2023-03-16T21:12:32.562Z,7.18
2023-03-16T21:15:02.584Z,6.63
2023-03-16T21:17:37.288Z,5.65
2023-03-16T21:20:18.246Z,5.97
2023-03-16T21:22:48.513Z,5.47
2023-03-16T21:25:43.810Z,6.45
2023-03-16T21:28:12.210Z,7.22
2023-03-16T21:30:45.001Z,8.40
2023-03-16T21:33:35.027Z,7.80
2023-03-16T21:36:04.388Z,6.47
2023-03-16T21:38:32.672Z,5.35
2023-03-16T21:41:00.847Z,5.93
2023-03-16T21:43:28.331Z,5.70
2023-03-16T21:45:57.050Z,6.53
2023-03-16T21:48:37.801Z,6.00
2023-03-16T21:51:22.156Z,5.40
2023-03-16T21:53:49.717Z,4.60
2023-03-16T21:56:23.131Z,5.75
2023-03-16T21:58:50.809Z,6.13
2023-03-16T22:01:58.641Z,6.18
2023-03-16T22:04:28.531Z,5.35
2023-03-16T22:06:55.462Z,5.10
2023-03-16T22:09:24.942Z,5.45
2023-03-16T22:11:51.960Z,5.50
2023-03-16T22:14:18.964Z,4.25
2023-03-16T22:16:46.218Z,6.40
2023-03-16T22:19:14.831Z,5.07
2023-03-16T22:21:43.940Z,5.70
2023-03-16T22:24:34.866Z,5.85
2023-03-16T22:27:01.912Z,5.95
2023-03-16T22:29:31.405Z,4.55
2023-03-16T22:32:03.075Z,5.15
2023-03-16T22:34:45.697Z,4.88
2023-03-16T22:37:17.536Z,5.35
2023-03-16T22:39:44.985Z,4.75
2023-03-16T22:42:33.642Z,5.28
2023-03-16T22:45:01.960Z,4.60
2023-03-16T22:47:35.384Z,4.95
2023-03-16T22:50:26.642Z,4.57
2023-03-16T22:52:57.397Z,5.32
2023-03-16T22:55:29.746Z,4.90
2023-03-16T22:58:07.976Z,5.07
2023-03-16T23:00:35.497Z,5.05
2023-03-16T23:03:03.322Z,5.20
2023-03-16T23:05:30.770Z,4.95
2023-03-16T23:08:02.788Z,5.10
2023-03-16T23:10:31.351Z,5.10
2023-03-16T23:13:00.015Z,4.63
2023-03-16T23:15:29.860Z,5.43
2023-03-16T23:17:57.120Z,4.72
2023-03-16T23:20:30.351Z,5.00
2023-03-16T23:22:57.762Z,4.80
2023-03-16T23:25:25.355Z,4.90
2023-03-16T23:27:52.725Z,5.28
2023-03-16T23:30:24.404Z,4.50
2023-03-16T23:32:53.245Z,4.85
2023-03-16T23:35:34.273Z,4.80
2023-03-16T23:38:01.362Z,4.75
2023-03-16T23:40:30.117Z,4.40
2023-03-16T23:42:59.345Z,3.83
2023-03-16T23:45:41.114Z,4.10
2023-03-16T23:48:22.275Z,4.45
2023-03-16T23:50:54.449Z,4.70
2023-03-16T23:53:21.665Z,3.88
2023-03-16T23:55:48.802Z,4.43
2023-03-16T23:58:16.517Z,3.95
